Sparta, Virginia
Current Conditions -  °F | °C
As of 4:35 PM on Sunday 23 Nov 2014 (Local Time) from KXSA Reporting Station
Overcast Overcast  
Wind Chill: 56°   Ceiling: 4700
Heat Index: 56°   Visibility: 10mi
Dew Point: 42°   Wind: 0mph
Humidity: 60%   Direction: NA
Pressure: 30.1"   Gusts: NA
Location:  37.99°N, 77.23°W
Report Text: KXSA 232135Z AUTO 00000KT 10SM SCT038 OVC047 13/06 A3010 RMK AO2 T01330056
Loading
Personal Weather Stations






























Interactive Weather Map New forecast layout! Learn more

10-Day Weather Forecast

Advertisements
Track Severe Weather on mobile